sensor_id;sensor_type;location;lat;lon;timestamp;temperature;humidity
11762;DHT22;5938;47.098;15.474;2023-12-29T00:02:21;-1.40;99.90
11762;DHT22;5938;47.098;15.474;2023-12-29T00:06:25;-1.50;99.90
11762;DHT22;5938;47.098;15.474;2023-12-29T00:10:30;-1.40;99.90
11762;DHT22;5938;47.098;15.474;2023-12-29T00:14:33;-1.60;99.90
11762;DHT22;5938;47.098;15.474;2023-12-29T00:18:39;-1.50;99.90
11762;DHT22;5938;47.098;15.474;2023-12-29T00:22:42;-1.30;99.90
11762;DHT22;5938;47.098;15.474;2023-12-29T00:26:47;-1.50;99.90
11762;DHT22;5938;47.098;15.474;2023-12-29T00:30:50;-1.50;99.90
11762;DHT22;5938;47.098;15.474;2023-12-29T00:35:04;-1.50;99.90
11762;DHT22;5938;47.098;15.474;2023-12-29T00:39:07;-1.40;99.90
11762;DHT22;5938;47.098;15.474;2023-12-29T00:43:12;-1.50;99.90
11762;DHT22;5938;47.098;15.474;2023-12-29T00:47:16;-1.90;99.90
11762;DHT22;5938;47.098;15.474;2023-12-29T00:51:21;-1.60;99.90
11762;DHT22;5938;47.098;15.474;2023-12-29T00:55:24;-1.60;99.90
11762;DHT22;5938;47.098;15.474;2023-12-29T00:59:29;-1.70;99.90
11762;DHT22;5938;47.098;15.474;2023-12-29T01:03:32;-1.60;99.90
11762;DHT22;5938;47.098;15.474;2023-12-29T01:07:36;-1.50;99.90
11762;DHT22;5938;47.098;15.474;2023-12-29T01:11:39;-1.40;99.90
11762;DHT22;5938;47.098;15.474;2023-12-29T01:15:44;-1.30;99.90
11762;DHT22;5938;47.098;15.474;2023-12-29T01:19:47;-1.40;99.90
11762;DHT22;5938;47.098;15.474;2023-12-29T01:23:51;-1.20;99.90
11762;DHT22;5938;47.098;15.474;2023-12-29T01:27:54;-1.20;99.90
11762;DHT22;5938;47.098;15.474;2023-12-29T01:31:59;-1.30;99.90
11762;DHT22;5938;47.098;15.474;2023-12-29T01:36:02;-1.30;99.90
11762;DHT22;5938;47.098;15.474;2023-12-29T01:40:16;-1.40;99.90
11762;DHT22;5938;47.098;15.474;2023-12-29T01:44:21;-1.40;99.90
11762;DHT22;5938;47.098;15.474;2023-12-29T01:48:26;-1.40;99.90
11762;DHT22;5938;47.098;15.474;2023-12-29T01:52:29;-1.30;99.90
11762;DHT22;5938;47.098;15.474;2023-12-29T01:56:33;-1.30;99.90
11762;DHT22;5938;47.098;15.474;2023-12-29T02:00:36;-1.30;99.90
11762;DHT22;5938;47.098;15.474;2023-12-29T02:04:41;-1.30;99.90
11762;DHT22;5938;47.098;15.474;2023-12-29T02:08:46;-1.50;99.90
11762;DHT22;5938;47.098;15.474;2023-12-29T02:12:50;-1.50;99.90
11762;DHT22;5938;47.098;15.474;2023-12-29T02:17:03;-1.70;99.90
11762;DHT22;5938;47.098;15.474;2023-12-29T02:21:10;-1.60;99.90
11762;DHT22;5938;47.098;15.474;2023-12-29T02:25:14;-1.70;99.90
11762;DHT22;5938;47.098;15.474;2023-12-29T02:29:20;-1.80;99.90
11762;DHT22;5938;47.098;15.474;2023-12-29T02:33:24;-1.90;99.90
11762;DHT22;5938;47.098;15.474;2023-12-29T02:37:29;-1.80;99.90
11762;DHT22;5938;47.098;15.474;2023-12-29T02:41:33;-1.90;99.90
11762;DHT22;5938;47.098;15.474;2023-12-29T02:45:37;-2.40;99.90
11762;DHT22;5938;47.098;15.474;2023-12-29T02:49:40;-2.60;99.90
11762;DHT22;5938;47.098;15.474;2023-12-29T02:53:44;-2.00;99.90
11762;DHT22;5938;47.098;15.474;2023-12-29T02:57:49;-2.10;99.90
11762;DHT22;5938;47.098;15.474;2023-12-29T03:01:52;-2.10;99.90
11762;DHT22;5938;47.098;15.474;2023-12-29T03:05:55;-2.60;99.90
11762;DHT22;5938;47.098;15.474;2023-12-29T03:09:59;-2.20;99.90
11762;DHT22;5938;47.098;15.474;2023-12-29T03:14:03;-2.10;99.90
11762;DHT22;5938;47.098;15.474;2023-12-29T03:18:07;-2.10;99.90
11762;DHT22;5938;47.098;15.474;2023-12-29T03:22:11;-2.10;99.90
11762;DHT22;5938;47.098;15.474;2023-12-29T03:26:14;-2.10;99.90
11762;DHT22;5938;47.098;15.474;2023-12-29T03:30:19;-2.30;99.90
11762;DHT22;5938;47.098;15.474;2023-12-29T03:34:22;-2.30;99.90
11762;DHT22;5938;47.098;15.474;2023-12-29T03:38:26;-2.20;99.90
11762;DHT22;5938;47.098;15.474;2023-12-29T03:42:29;-2.20;99.90
11762;DHT22;5938;47.098;15.474;2023-12-29T03:46:34;-2.30;99.90
11762;DHT22;5938;47.098;15.474;2023-12-29T03:50:37;-2.50;99.90
11762;DHT22;5938;47.098;15.474;2023-12-29T03:54:41;-2.30;99.90
11762;DHT22;5938;47.098;15.474;2023-12-29T03:58:45;-2.50;99.90
11762;DHT22;5938;47.098;15.474;2023-12-29T04:02:49;-2.40;99.90
11762;DHT22;5938;47.098;15.474;2023-12-29T04:06:53;-2.50;99.90
11762;DHT22;5938;47.098;15.474;2023-12-29T04:10:56;-2.40;99.90
11762;DHT22;5938;47.098;15.474;2023-12-29T04:15:00;-2.50;99.90
11762;DHT22;5938;47.098;15.474;2023-12-29T04:19:04;-2.40;99.90
11762;DHT22;5938;47.098;15.474;2023-12-29T04:23:08;-2.50;99.90
11762;DHT22;5938;47.098;15.474;2023-12-29T04:27:11;-2.40;99.90
11762;DHT22;5938;47.098;15.474;2023-12-29T04:31:14;-2.20;99.90
11762;DHT22;5938;47.098;15.474;2023-12-29T04:35:19;-2.40;99.90
11762;DHT22;5938;47.098;15.474;2023-12-29T04:39:22;-2.40;99.90
11762;DHT22;5938;47.098;15.474;2023-12-29T04:43:26;-2.60;99.90
11762;DHT22;5938;47.098;15.474;2023-12-29T04:47:30;-2.50;99.90
11762;DHT22;5938;47.098;15.474;2023-12-29T04:51:34;-2.50;99.90
11762;DHT22;5938;47.098;15.474;2023-12-29T04:55:39;-2.60;99.90
11762;DHT22;5938;47.098;15.474;2023-12-29T04:59:42;-2.60;99.90
11762;DHT22;5938;47.098;15.474;2023-12-29T05:03:45;-2.90;99.90
11762;DHT22;5938;47.098;15.474;2023-12-29T05:07:50;-3.00;99.90
11762;DHT22;5938;47.098;15.474;2023-12-29T05:11:53;-2.70;99.90
11762;DHT22;5938;47.098;15.474;2023-12-29T05:15:56;-2.80;99.90
11762;DHT22;5938;47.098;15.474;2023-12-29T05:20:00;-2.70;99.90
11762;DHT22;5938;47.098;15.474;2023-12-29T05:24:05;-2.70;99.90
11762;DHT22;5938;47.098;15.474;2023-12-29T05:28:09;-2.90;99.90
11762;DHT22;5938;47.098;15.474;2023-12-29T05:32:12;-2.70;99.90
11762;DHT22;5938;47.098;15.474;2023-12-29T05:36:15;-2.80;99.90
11762;DHT22;5938;47.098;15.474;2023-12-29T05:40:20;-2.70;99.90
11762;DHT22;5938;47.098;15.474;2023-12-29T05:44:23;-2.80;99.90
11762;DHT22;5938;47.098;15.474;2023-12-29T05:48:27;-3.00;99.90
11762;DHT22;5938;47.098;15.474;2023-12-29T05:52:30;-2.90;99.90
11762;DHT22;5938;47.098;15.474;2023-12-29T05:56:35;-2.90;99.90
11762;DHT22;5938;47.098;15.474;2023-12-29T06:00:39;-2.70;99.90
11762;DHT22;5938;47.098;15.474;2023-12-29T06:04:42;-2.90;99.90
11762;DHT22;5938;47.098;15.474;2023-12-29T06:08:45;-2.90;99.90
11762;DHT22;5938;47.098;15.474;2023-12-29T06:12:51;-2.90;99.90
11762;DHT22;5938;47.098;15.474;2023-12-29T06:16:58;-2.80;99.90
11762;DHT22;5938;47.098;15.474;2023-12-29T06:21:03;-3.00;99.90
11762;DHT22;5938;47.098;15.474;2023-12-29T06:25:09;-2.80;99.90
11762;DHT22;5938;47.098;15.474;2023-12-29T06:29:16;-3.00;99.90
11762;DHT22;5938;47.098;15.474;2023-12-29T06:33:22;-3.10;99.90
11762;DHT22;5938;47.098;15.474;2023-12-29T06:37:26;-2.90;99.90
11762;DHT22;5938;47.098;15.474;2023-12-29T06:41:30;-2.80;99.90
11762;DHT22;5938;47.098;15.474;2023-12-29T06:45:35;-3.10;99.90
11762;DHT22;5938;47.098;15.474;2023-12-29T06:49:40;-2.80;99.90
11762;DHT22;5938;47.098;15.474;2023-12-29T06:53:44;-3.00;99.90
11762;DHT22;5938;47.098;15.474;2023-12-29T06:57:48;-2.80;99.90
11762;DHT22;5938;47.098;15.474;2023-12-29T07:01:53;-3.10;99.90
11762;DHT22;5938;47.098;15.474;2023-12-29T07:05:56;-2.80;99.90
11762;DHT22;5938;47.098;15.474;2023-12-29T07:09:59;-2.90;99.90
11762;DHT22;5938;47.098;15.474;2023-12-29T07:14:03;-3.00;99.90
11762;DHT22;5938;47.098;15.474;2023-12-29T07:18:08;-3.00;99.90
11762;DHT22;5938;47.098;15.474;2023-12-29T07:22:12;-2.90;99.90
11762;DHT22;5938;47.098;15.474;2023-12-29T07:26:15;-2.70;99.90
11762;DHT22;5938;47.098;15.474;2023-12-29T07:30:19;-2.70;99.90
11762;DHT22;5938;47.098;15.474;2023-12-29T07:34:23;-2.80;99.90
11762;DHT22;5938;47.098;15.474;2023-12-29T07:38:27;-2.60;99.90
11762;DHT22;5938;47.098;15.474;2023-12-29T07:42:30;-2.60;99.90
11762;DHT22;5938;47.098;15.474;2023-12-29T07:46:34;-2.50;99.90
11762;DHT22;5938;47.098;15.474;2023-12-29T07:50:39;-2.50;99.90
11762;DHT22;5938;47.098;15.474;2023-12-29T07:54:42;-2.40;99.90
11762;DHT22;5938;47.098;15.474;2023-12-29T07:58:46;-2.60;99.90
11762;DHT22;5938;47.098;15.474;2023-12-29T08:02:51;-2.30;99.90
11762;DHT22;5938;47.098;15.474;2023-12-29T08:06:56;-2.30;99.90
11762;DHT22;5938;47.098;15.474;2023-12-29T08:11:00;-2.10;99.90
11762;DHT22;5938;47.098;15.474;2023-12-29T08:15:04;-2.10;99.90
11762;DHT22;5938;47.098;15.474;2023-12-29T08:19:09;-2.10;99.90
11762;DHT22;5938;47.098;15.474;2023-12-29T08:23:14;-2.00;99.90
11762;DHT22;5938;47.098;15.474;2023-12-29T08:27:23;-2.10;99.90
11762;DHT22;5938;47.098;15.474;2023-12-29T08:31:27;-2.00;99.90
11762;DHT22;5938;47.098;15.474;2023-12-29T08:35:33;-1.60;99.90
11762;DHT22;5938;47.098;15.474;2023-12-29T08:39:38;-1.60;99.90
11762;DHT22;5938;47.098;15.474;2023-12-29T08:43:42;-1.30;99.90
11762;DHT22;5938;47.098;15.474;2023-12-29T08:47:46;-1.20;99.90
11762;DHT22;5938;47.098;15.474;2023-12-29T08:51:50;-1.00;99.90
11762;DHT22;5938;47.098;15.474;2023-12-29T08:56:00;-1.00;99.90
11762;DHT22;5938;47.098;15.474;2023-12-29T09:00:04;-0.30;99.90
11762;DHT22;5938;47.098;15.474;2023-12-29T09:04:08;0.00;99.90
11762;DHT22;5938;47.098;15.474;2023-12-29T09:08:11;0.00;99.90
11762;DHT22;5938;47.098;15.474;2023-12-29T09:12:16;0.30;99.90
11762;DHT22;5938;47.098;15.474;2023-12-29T09:16:19;0.70;99.90
11762;DHT22;5938;47.098;15.474;2023-12-29T09:20:23;0.60;99.90
11762;DHT22;5938;47.098;15.474;2023-12-29T09:24:26;0.60;99.90
11762;DHT22;5938;47.098;15.474;2023-12-29T09:28:32;0.70;99.90
11762;DHT22;5938;47.098;15.474;2023-12-29T09:32:35;0.80;99.90
11762;DHT22;5938;47.098;15.474;2023-12-29T09:36:39;0.90;99.90
11762;DHT22;5938;47.098;15.474;2023-12-29T09:40:42;1.00;99.90
11762;DHT22;5938;47.098;15.474;2023-12-29T09:44:49;0.70;99.90
11762;DHT22;5938;47.098;15.474;2023-12-29T09:48:55;1.40;99.90
11762;DHT22;5938;47.098;15.474;2023-12-29T09:53:02;1.40;99.90
11762;DHT22;5938;47.098;15.474;2023-12-29T09:57:05;1.60;99.90
11762;DHT22;5938;47.098;15.474;2023-12-29T10:01:10;1.80;99.90
11762;DHT22;5938;47.098;15.474;2023-12-29T10:05:15;2.20;99.90
11762;DHT22;5938;47.098;15.474;2023-12-29T10:09:21;2.50;99.90
11762;DHT22;5938;47.098;15.474;2023-12-29T10:13:24;3.00;99.90
11762;DHT22;5938;47.098;15.474;2023-12-29T10:17:40;3.90;99.90
11762;DHT22;5938;47.098;15.474;2023-12-29T10:21:51;4.90;99.90
11762;DHT22;5938;47.098;15.474;2023-12-29T10:25:55;6.00;99.90
11762;DHT22;5938;47.098;15.474;2023-12-29T10:29:59;6.60;99.90
11762;DHT22;5938;47.098;15.474;2023-12-29T10:34:19;7.00;99.90
11762;DHT22;5938;47.098;15.474;2023-12-29T10:38:22;7.50;99.90
11762;DHT22;5938;47.098;15.474;2023-12-29T10:42:26;8.40;99.90
11762;DHT22;5938;47.098;15.474;2023-12-29T10:46:30;9.30;99.90
11762;DHT22;5938;47.098;15.474;2023-12-29T10:50:44;10.80;99.90
11762;DHT22;5938;47.098;15.474;2023-12-29T10:54:48;11.70;99.90
11762;DHT22;5938;47.098;15.474;2023-12-29T10:58:58;11.80;99.90
11762;DHT22;5938;47.098;15.474;2023-12-29T11:03:04;10.60;96.00
11762;DHT22;5938;47.098;15.474;2023-12-29T11:07:12;10.20;96.20
11762;DHT22;5938;47.098;15.474;2023-12-29T11:11:16;10.50;95.20
11762;DHT22;5938;47.098;15.474;2023-12-29T11:15:21;11.30;93.80
11762;DHT22;5938;47.098;15.474;2023-12-29T11:19:28;12.70;94.10
11762;DHT22;5938;47.098;15.474;2023-12-29T11:23:32;14.60;90.90
11762;DHT22;5938;47.098;15.474;2023-12-29T11:27:36;15.90;85.40
11762;DHT22;5938;47.098;15.474;2023-12-29T11:31:40;16.40;82.60
11762;DHT22;5938;47.098;15.474;2023-12-29T11:35:45;15.30;82.30
11762;DHT22;5938;47.098;15.474;2023-12-29T11:40:01;13.30;85.60
11762;DHT22;5938;47.098;15.474;2023-12-29T11:44:08;11.60;89.00
11762;DHT22;5938;47.098;15.474;2023-12-29T11:48:11;10.40;90.60
11762;DHT22;5938;47.098;15.474;2023-12-29T11:52:32;9.80;92.80
11762;DHT22;5938;47.098;15.474;2023-12-29T11:56:39;9.30;93.30
11762;DHT22;5938;47.098;15.474;2023-12-29T12:00:47;9.00;94.80
11762;DHT22;5938;47.098;15.474;2023-12-29T12:04:50;8.90;94.90
11762;DHT22;5938;47.098;15.474;2023-12-29T12:09:15;8.90;93.90
11762;DHT22;5938;47.098;15.474;2023-12-29T12:17:50;8.90;95.40
11762;DHT22;5938;47.098;15.474;2023-12-29T12:21:54;9.00;94.10
11762;DHT22;5938;47.098;15.474;2023-12-29T12:26:01;9.10;94.60
11762;DHT22;5938;47.098;15.474;2023-12-29T12:30:06;9.20;94.60
11762;DHT22;5938;47.098;15.474;2023-12-29T12:34:14;9.40;94.30
11762;DHT22;5938;47.098;15.474;2023-12-29T12:38:18;9.60;93.50
11762;DHT22;5938;47.098;15.474;2023-12-29T12:42:24;10.00;92.60
11762;DHT22;5938;47.098;15.474;2023-12-29T12:46:27;10.70;92.30
11762;DHT22;5938;47.098;15.474;2023-12-29T12:50:37;10.80;91.70
11762;DHT22;5938;47.098;15.474;2023-12-29T12:54:46;11.00;91.50
11762;DHT22;5938;47.098;15.474;2023-12-29T12:58:50;11.30;91.60
11762;DHT22;5938;47.098;15.474;2023-12-29T13:02:53;11.90;88.70
11762;DHT22;5938;47.098;15.474;2023-12-29T13:06:58;12.00;88.10
11762;DHT22;5938;47.098;15.474;2023-12-29T13:11:01;11.80;89.70
11762;DHT22;5938;47.098;15.474;2023-12-29T13:15:05;11.50;89.90
11762;DHT22;5938;47.098;15.474;2023-12-29T13:19:17;11.20;90.40
11762;DHT22;5938;47.098;15.474;2023-12-29T13:23:25;11.00;90.60
11762;DHT22;5938;47.098;15.474;2023-12-29T13:27:30;10.40;91.20
11762;DHT22;5938;47.098;15.474;2023-12-29T13:31:34;9.90;92.40
11762;DHT22;5938;47.098;15.474;2023-12-29T13:35:40;9.40;93.20
11762;DHT22;5938;47.098;15.474;2023-12-29T13:40:08;9.00;94.30
11762;DHT22;5938;47.098;15.474;2023-12-29T13:44:14;8.60;94.60
11762;DHT22;5938;47.098;15.474;2023-12-29T13:48:18;8.30;95.20
11762;DHT22;5938;47.098;15.474;2023-12-29T13:52:23;8.00;95.90
11762;DHT22;5938;47.098;15.474;2023-12-29T13:56:28;7.80;96.10
11762;DHT22;5938;47.098;15.474;2023-12-29T14:00:32;7.50;97.10
11762;DHT22;5938;47.098;15.474;2023-12-29T14:04:39;7.30;97.60
11762;DHT22;5938;47.098;15.474;2023-12-29T14:08:45;7.10;98.30
11762;DHT22;5938;47.098;15.474;2023-12-29T14:12:51;6.90;98.80
11762;DHT22;5938;47.098;15.474;2023-12-29T14:16:55;6.70;99.50
11762;DHT22;5938;47.098;15.474;2023-12-29T14:20:59;6.50;99.90
11762;DHT22;5938;47.098;15.474;2023-12-29T14:25:05;6.40;99.90
11762;DHT22;5938;47.098;15.474;2023-12-29T14:29:12;6.20;99.90
11762;DHT22;5938;47.098;15.474;2023-12-29T14:33:15;6.00;99.90
11762;DHT22;5938;47.098;15.474;2023-12-29T14:37:19;5.90;99.90
11762;DHT22;5938;47.098;15.474;2023-12-29T14:41:22;5.60;99.90
11762;DHT22;5938;47.098;15.474;2023-12-29T14:45:27;5.40;99.90
11762;DHT22;5938;47.098;15.474;2023-12-29T14:49:31;5.20;99.90
11762;DHT22;5938;47.098;15.474;2023-12-29T14:53:34;5.00;99.90
11762;DHT22;5938;47.098;15.474;2023-12-29T14:57:38;4.70;99.90
11762;DHT22;5938;47.098;15.474;2023-12-29T15:01:43;4.40;99.90
11762;DHT22;5938;47.098;15.474;2023-12-29T15:05:47;4.20;99.90
11762;DHT22;5938;47.098;15.474;2023-12-29T15:09:50;3.80;99.90
11762;DHT22;5938;47.098;15.474;2023-12-29T15:13:54;3.60;99.90
11762;DHT22;5938;47.098;15.474;2023-12-29T15:18:00;3.40;99.90
11762;DHT22;5938;47.098;15.474;2023-12-29T15:22:04;3.20;99.90
11762;DHT22;5938;47.098;15.474;2023-12-29T15:26:08;3.10;99.90
11762;DHT22;5938;47.098;15.474;2023-12-29T15:30:16;2.90;99.90
11762;DHT22;5938;47.098;15.474;2023-12-29T15:34:21;2.80;99.90
11762;DHT22;5938;47.098;15.474;2023-12-29T15:38:25;2.70;99.90
11762;DHT22;5938;47.098;15.474;2023-12-29T15:42:29;2.50;99.90
11762;DHT22;5938;47.098;15.474;2023-12-29T15:46:33;2.40;99.90
11762;DHT22;5938;47.098;15.474;2023-12-29T15:50:38;2.30;99.90
11762;DHT22;5938;47.098;15.474;2023-12-29T15:54:41;2.10;99.90
11762;DHT22;5938;47.098;15.474;2023-12-29T15:58:47;1.90;99.90
11762;DHT22;5938;47.098;15.474;2023-12-29T16:02:50;1.90;99.90
11762;DHT22;5938;47.098;15.474;2023-12-29T16:06:56;1.70;99.90
11762;DHT22;5938;47.098;15.474;2023-12-29T16:10:59;1.60;99.90
11762;DHT22;5938;47.098;15.474;2023-12-29T16:15:04;1.60;99.90
11762;DHT22;5938;47.098;15.474;2023-12-29T16:19:08;1.60;99.90
11762;DHT22;5938;47.098;15.474;2023-12-29T16:23:14;1.40;99.90
11762;DHT22;5938;47.098;15.474;2023-12-29T16:27:17;1.10;99.90
11762;DHT22;5938;47.098;15.474;2023-12-29T16:31:21;1.30;99.90
11762;DHT22;5938;47.098;15.474;2023-12-29T16:35:25;1.30;99.90
11762;DHT22;5938;47.098;15.474;2023-12-29T16:39:30;1.20;99.90
11762;DHT22;5938;47.098;15.474;2023-12-29T16:43:34;1.20;99.90
11762;DHT22;5938;47.098;15.474;2023-12-29T16:47:38;1.10;99.90
11762;DHT22;5938;47.098;15.474;2023-12-29T16:51:45;1.10;99.90
11762;DHT22;5938;47.098;15.474;2023-12-29T16:55:52;1.00;99.90
11762;DHT22;5938;47.098;15.474;2023-12-29T16:59:59;0.90;99.90
11762;DHT22;5938;47.098;15.474;2023-12-29T17:04:04;0.80;99.90
11762;DHT22;5938;47.098;15.474;2023-12-29T17:08:09;0.60;99.90
11762;DHT22;5938;47.098;15.474;2023-12-29T17:12:14;0.50;99.90
11762;DHT22;5938;47.098;15.474;2023-12-29T17:16:18;0.50;99.90
11762;DHT22;5938;47.098;15.474;2023-12-29T17:20:27;0.60;99.90
11762;DHT22;5938;47.098;15.474;2023-12-29T17:24:34;0.70;99.90
11762;DHT22;5938;47.098;15.474;2023-12-29T17:28:43;0.60;99.90
11762;DHT22;5938;47.098;15.474;2023-12-29T17:32:47;0.40;99.90
11762;DHT22;5938;47.098;15.474;2023-12-29T17:36:51;0.10;99.90
11762;DHT22;5938;47.098;15.474;2023-12-29T17:40:55;0.00;99.90
11762;DHT22;5938;47.098;15.474;2023-12-29T17:45:00;0.40;99.90
11762;DHT22;5938;47.098;15.474;2023-12-29T17:49:03;0.10;99.90
11762;DHT22;5938;47.098;15.474;2023-12-29T17:53:10;0.20;99.90
11762;DHT22;5938;47.098;15.474;2023-12-29T17:57:14;-0.10;99.90
11762;DHT22;5938;47.098;15.474;2023-12-29T18:01:19;-0.10;99.90
11762;DHT22;5938;47.098;15.474;2023-12-29T18:05:23;-0.10;99.90
11762;DHT22;5938;47.098;15.474;2023-12-29T18:09:27;-0.10;99.90
11762;DHT22;5938;47.098;15.474;2023-12-29T18:13:31;0.00;99.90
11762;DHT22;5938;47.098;15.474;2023-12-29T18:17:36;-0.30;99.90
11762;DHT22;5938;47.098;15.474;2023-12-29T18:21:40;-0.20;99.90
11762;DHT22;5938;47.098;15.474;2023-12-29T18:25:44;-0.10;99.90
11762;DHT22;5938;47.098;15.474;2023-12-29T18:29:47;-0.30;99.90
11762;DHT22;5938;47.098;15.474;2023-12-29T18:33:52;-0.20;99.90
11762;DHT22;5938;47.098;15.474;2023-12-29T18:37:55;-0.40;99.90
11762;DHT22;5938;47.098;15.474;2023-12-29T18:42:00;-0.30;99.90
11762;DHT22;5938;47.098;15.474;2023-12-29T18:46:05;-0.30;99.90
11762;DHT22;5938;47.098;15.474;2023-12-29T18:50:10;-0.20;99.90
11762;DHT22;5938;47.098;15.474;2023-12-29T18:54:14;-0.40;99.90
11762;DHT22;5938;47.098;15.474;2023-12-29T18:58:18;-0.90;99.90
11762;DHT22;5938;47.098;15.474;2023-12-29T19:02:21;-0.70;99.90
11762;DHT22;5938;47.098;15.474;2023-12-29T19:06:26;-0.70;99.90
11762;DHT22;5938;47.098;15.474;2023-12-29T19:10:29;-0.50;99.90
11762;DHT22;5938;47.098;15.474;2023-12-29T19:14:36;-0.50;99.90
11762;DHT22;5938;47.098;15.474;2023-12-29T19:18:40;-0.80;99.90
11762;DHT22;5938;47.098;15.474;2023-12-29T19:22:46;-0.60;99.90
11762;DHT22;5938;47.098;15.474;2023-12-29T19:26:49;-0.60;99.90
11762;DHT22;5938;47.098;15.474;2023-12-29T19:30:53;-0.60;99.90
11762;DHT22;5938;47.098;15.474;2023-12-29T19:34:57;-0.70;99.90
11762;DHT22;5938;47.098;15.474;2023-12-29T19:39:02;-0.60;99.90
11762;DHT22;5938;47.098;15.474;2023-12-29T19:43:07;-0.80;99.90
11762;DHT22;5938;47.098;15.474;2023-12-29T19:47:11;-0.70;99.90
11762;DHT22;5938;47.098;15.474;2023-12-29T19:51:17;-0.80;99.90
11762;DHT22;5938;47.098;15.474;2023-12-29T19:55:23;-0.60;99.90
11762;DHT22;5938;47.098;15.474;2023-12-29T19:59:27;-0.70;99.90
11762;DHT22;5938;47.098;15.474;2023-12-29T20:03:30;-0.80;99.90
11762;DHT22;5938;47.098;15.474;2023-12-29T20:07:34;-1.00;99.90
11762;DHT22;5938;47.098;15.474;2023-12-29T20:11:40;-1.00;99.90
11762;DHT22;5938;47.098;15.474;2023-12-29T20:15:44;-0.70;99.90
11762;DHT22;5938;47.098;15.474;2023-12-29T20:19:48;-0.80;99.90
11762;DHT22;5938;47.098;15.474;2023-12-29T20:23:52;-0.90;99.90
11762;DHT22;5938;47.098;15.474;2023-12-29T20:28:00;-0.90;99.90
11762;DHT22;5938;47.098;15.474;2023-12-29T20:32:06;-0.90;99.90
11762;DHT22;5938;47.098;15.474;2023-12-29T20:36:10;-0.70;99.90
11762;DHT22;5938;47.098;15.474;2023-12-29T20:40:14;-0.70;99.90
11762;DHT22;5938;47.098;15.474;2023-12-29T20:44:20;-0.90;99.90
11762;DHT22;5938;47.098;15.474;2023-12-29T20:48:23;-0.90;99.90
11762;DHT22;5938;47.098;15.474;2023-12-29T20:52:26;-1.00;99.90
11762;DHT22;5938;47.098;15.474;2023-12-29T20:56:31;-1.10;99.90
11762;DHT22;5938;47.098;15.474;2023-12-29T21:00:36;-1.00;99.90
11762;DHT22;5938;47.098;15.474;2023-12-29T21:04:39;-1.00;99.90
11762;DHT22;5938;47.098;15.474;2023-12-29T21:08:43;-0.90;99.90
11762;DHT22;5938;47.098;15.474;2023-12-29T21:12:47;-1.10;99.90
11762;DHT22;5938;47.098;15.474;2023-12-29T21:16:52;-1.20;99.90
11762;DHT22;5938;47.098;15.474;2023-12-29T21:20:55;-0.90;99.90
11762;DHT22;5938;47.098;15.474;2023-12-29T21:24:59;-1.10;99.90
11762;DHT22;5938;47.098;15.474;2023-12-29T21:29:04;-1.20;99.90
11762;DHT22;5938;47.098;15.474;2023-12-29T21:33:08;-1.40;99.90
11762;DHT22;5938;47.098;15.474;2023-12-29T21:37:12;-1.40;99.90
11762;DHT22;5938;47.098;15.474;2023-12-29T21:41:15;-1.20;99.90
11762;DHT22;5938;47.098;15.474;2023-12-29T21:45:19;-1.20;99.90
11762;DHT22;5938;47.098;15.474;2023-12-29T21:49:23;-1.40;99.90
11762;DHT22;5938;47.098;15.474;2023-12-29T21:53:27;-1.30;99.90
11762;DHT22;5938;47.098;15.474;2023-12-29T21:57:30;-1.40;99.90
11762;DHT22;5938;47.098;15.474;2023-12-29T22:01:35;-1.40;99.90
11762;DHT22;5938;47.098;15.474;2023-12-29T22:05:42;-1.50;99.90
11762;DHT22;5938;47.098;15.474;2023-12-29T22:09:45;-1.40;99.90
11762;DHT22;5938;47.098;15.474;2023-12-29T22:13:49;-1.40;99.90
11762;DHT22;5938;47.098;15.474;2023-12-29T22:17:52;-1.30;99.90
11762;DHT22;5938;47.098;15.474;2023-12-29T22:21:57;-1.40;99.90
11762;DHT22;5938;47.098;15.474;2023-12-29T22:26:00;-1.30;99.90
11762;DHT22;5938;47.098;15.474;2023-12-29T22:30:04;-1.50;99.90
11762;DHT22;5938;47.098;15.474;2023-12-29T22:34:09;-1.30;99.90
11762;DHT22;5938;47.098;15.474;2023-12-29T22:38:14;-1.50;99.90
11762;DHT22;5938;47.098;15.474;2023-12-29T22:42:18;-1.40;99.90
11762;DHT22;5938;47.098;15.474;2023-12-29T22:46:21;-1.50;99.90
11762;DHT22;5938;47.098;15.474;2023-12-29T22:50:27;-1.50;99.90
11762;DHT22;5938;47.098;15.474;2023-12-29T22:54:32;-1.50;99.90
11762;DHT22;5938;47.098;15.474;2023-12-29T22:58:36;-1.50;99.90
11762;DHT22;5938;47.098;15.474;2023-12-29T23:02:39;-1.50;99.90
11762;DHT22;5938;47.098;15.474;2023-12-29T23:06:43;-1.70;99.90
11762;DHT22;5938;47.098;15.474;2023-12-29T23:10:48;-1.70;99.90
11762;DHT22;5938;47.098;15.474;2023-12-29T23:14:51;-1.60;99.90
11762;DHT22;5938;47.098;15.474;2023-12-29T23:18:54;-1.70;99.90
11762;DHT22;5938;47.098;15.474;2023-12-29T23:22:58;-1.70;99.90
11762;DHT22;5938;47.098;15.474;2023-12-29T23:27:04;-1.90;99.90
11762;DHT22;5938;47.098;15.474;2023-12-29T23:31:07;-1.70;99.90
11762;DHT22;5938;47.098;15.474;2023-12-29T23:35:12;-1.80;99.90
11762;DHT22;5938;47.098;15.474;2023-12-29T23:39:25;-1.70;99.90
11762;DHT22;5938;47.098;15.474;2023-12-29T23:43:30;-1.70;99.90
11762;DHT22;5938;47.098;15.474;2023-12-29T23:47:33;-1.70;99.90
11762;DHT22;5938;47.098;15.474;2023-12-29T23:51:37;-1.90;99.90
11762;DHT22;5938;47.098;15.474;2023-12-29T23:55:40;-1.70;99.90
11762;DHT22;5938;47.098;15.474;2023-12-29T23:59:45;-1.90;99.90
